createdAt,value
2023-02-20T00:00:04.084Z,85.18
2023-02-20T00:02:56.858Z,85.32
2023-02-20T00:05:32.222Z,85.23
2023-02-20T00:08:03.607Z,85.19
2023-02-20T00:10:33.186Z,85.15
2023-02-20T00:13:02.867Z,84.78
2023-02-20T00:15:32.736Z,84.36
2023-02-20T00:18:03.688Z,83.31
2023-02-20T00:20:34.036Z,82.49
2023-02-20T00:23:04.204Z,81.92
2023-02-20T00:25:33.748Z,81.57
2023-02-20T00:28:04.198Z,81.78
2023-02-20T00:30:34.005Z,81.40
2023-02-20T00:33:03.290Z,80.70
2023-02-20T00:35:34.354Z,80.92
2023-02-20T00:38:03.951Z,80.42
2023-02-20T00:40:33.855Z,79.93
2023-02-20T00:43:04.433Z,79.38
2023-02-20T00:45:38.014Z,78.66
2023-02-20T00:48:08.147Z,78.05
2023-02-20T00:50:38.596Z,77.90
2023-02-20T00:53:08.789Z,77.96
2023-02-20T00:55:40.155Z,78.22
2023-02-20T00:58:09.613Z,77.63
2023-02-20T01:00:39.648Z,77.05
2023-02-20T01:03:09.047Z,77.07
2023-02-20T01:05:42.523Z,77.13
2023-02-20T01:08:12.190Z,77.08
2023-02-20T01:10:42.280Z,76.75
2023-02-20T01:13:13.274Z,76.06
2023-02-20T01:15:42.895Z,76.33
2023-02-20T01:18:15.640Z,75.81
2023-02-20T01:20:45.427Z,75.60
2023-02-20T01:23:17.934Z,75.19
2023-02-20T01:25:48.033Z,75.00
2023-02-20T01:28:18.506Z,75.09
2023-02-20T01:30:49.041Z,74.77
2023-02-20T01:33:19.470Z,75.14
2023-02-20T01:35:49.602Z,74.59
2023-02-20T01:38:19.080Z,74.39
2023-02-20T01:40:50.468Z,74.37
2023-02-20T01:43:20.294Z,74.38
2023-02-20T01:45:53.652Z,73.79
2023-02-20T01:48:27.203Z,72.98
2023-02-20T01:51:01.257Z,72.68
2023-02-20T01:53:32.065Z,71.88
2023-02-20T01:56:09.461Z,72.24
2023-02-20T01:58:54.509Z,72.20
2023-02-20T02:01:40.391Z,71.79
2023-02-20T02:04:24.528Z,71.29
2023-02-20T02:07:18.017Z,70.96
2023-02-20T02:10:16.779Z,70.98
2023-02-20T02:12:59.289Z,71.30
2023-02-20T02:15:37.145Z,71.15
2023-02-20T02:18:37.037Z,71.40
2023-02-20T02:21:08.584Z,71.86
2023-02-20T02:24:04.560Z,72.17
2023-02-20T02:26:53.518Z,72.02
2023-02-20T02:30:18.846Z,72.40
2023-02-20T02:33:26.981Z,72.77
2023-02-20T02:36:22.880Z,73.00
2023-02-20T02:39:20.168Z,72.83
2023-02-20T02:42:09.356Z,72.44
2023-02-20T02:45:12.913Z,72.65
2023-02-20T02:48:17.757Z,72.85
2023-02-20T02:50:52.237Z,72.88
2023-02-20T02:53:23.333Z,72.83
2023-02-20T02:55:53.703Z,72.80
2023-02-20T02:58:24.569Z,72.75
2023-02-20T03:01:03.587Z,72.97
2023-02-20T03:03:39.877Z,72.94
2023-02-20T03:06:35.397Z,72.73
2023-02-20T03:09:10.698Z,72.65
2023-02-20T03:11:43.349Z,72.49
2023-02-20T03:14:48.918Z,72.69
2023-02-20T03:17:36.219Z,72.57
2023-02-20T03:20:19.209Z,72.41
2023-02-20T03:23:03.941Z,72.38
2023-02-20T03:25:55.335Z,72.25
2023-02-20T03:28:42.124Z,72.53
2023-02-20T03:31:27.665Z,72.78
2023-02-20T03:34:41.765Z,73.03
2023-02-20T03:37:46.699Z,72.90
2023-02-20T03:40:43.352Z,72.73
2023-02-20T03:43:26.062Z,72.34
2023-02-20T03:46:13.082Z,72.27
2023-02-20T03:48:48.065Z,72.38
2023-02-20T03:51:19.797Z,72.36
2023-02-20T03:54:04.934Z,72.45
2023-02-20T03:56:58.294Z,72.39
2023-02-20T03:59:40.919Z,72.33
2023-02-20T04:02:26.697Z,72.20
2023-02-20T04:05:11.634Z,71.95
2023-02-20T04:08:23.030Z,71.98
2023-02-20T04:11:00.758Z,71.64
2023-02-20T04:13:53.418Z,71.38
2023-02-20T04:16:34.942Z,70.92
2023-02-20T04:19:07.210Z,70.98
2023-02-20T04:22:07.357Z,71.10
2023-02-20T04:24:59.624Z,70.92
2023-02-20T04:27:33.073Z,70.80
2023-02-20T04:30:05.455Z,70.64
2023-02-20T04:32:35.740Z,70.61
2023-02-20T04:35:06.910Z,70.38
2023-02-20T04:37:41.556Z,70.38
2023-02-20T04:40:14.610Z,70.26
2023-02-20T04:42:44.062Z,70.12
2023-02-20T04:45:14.828Z,70.31
2023-02-20T04:47:47.352Z,70.24
2023-02-20T04:50:34.498Z,70.29
2023-02-20T04:53:04.746Z,69.90
2023-02-20T04:55:34.036Z,69.04
2023-02-20T04:58:09.415Z,68.69
2023-02-20T05:00:52.320Z,68.45
2023-02-20T05:03:22.607Z,67.53
2023-02-20T05:05:52.867Z,67.62
2023-02-20T05:08:23.162Z,67.33
2023-02-20T05:10:53.146Z,66.90
2023-02-20T05:13:23.401Z,66.76
2023-02-20T05:15:52.646Z,66.47
2023-02-20T05:18:26.730Z,66.60
2023-02-20T05:21:15.093Z,66.84
2023-02-20T05:23:47.833Z,66.74
2023-02-20T05:26:21.523Z,66.86
2023-02-20T05:28:51.519Z,66.67
2023-02-20T05:31:20.648Z,66.65
2023-02-20T05:33:52.188Z,66.84
2023-02-20T05:36:22.483Z,66.94
2023-02-20T05:38:56.364Z,66.92
2023-02-20T05:41:25.675Z,67.38
2023-02-20T05:43:58.011Z,67.25
2023-02-20T05:46:28.341Z,67.01
2023-02-20T05:48:57.830Z,66.96
2023-02-20T05:51:30.310Z,66.59
2023-02-20T05:54:01.138Z,66.26
2023-02-20T05:56:30.556Z,65.88
2023-02-20T05:59:00.677Z,66.10
2023-02-20T06:01:32.475Z,66.07
2023-02-20T06:04:03.746Z,65.72
2023-02-20T06:06:41.250Z,65.64
2023-02-20T06:09:12.814Z,65.22
2023-02-20T06:11:46.754Z,64.83
2023-02-20T06:14:19.323Z,64.96
2023-02-20T06:16:49.547Z,65.18
2023-02-20T06:19:23.923Z,64.96
2023-02-20T06:21:59.122Z,64.53
2023-02-20T06:24:29.832Z,64.25
2023-02-20T06:26:59.460Z,64.16
2023-02-20T06:29:29.866Z,63.86
2023-02-20T06:32:00.672Z,63.69
2023-02-20T06:34:33.792Z,63.47
2023-02-20T06:37:06.058Z,63.15
2023-02-20T06:39:35.529Z,63.37
2023-02-20T06:42:06.648Z,63.64
2023-02-20T06:44:36.604Z,63.13
2023-02-20T06:47:09.568Z,62.34
2023-02-20T06:49:39.609Z,62.42
2023-02-20T06:52:10.859Z,61.99
2023-02-20T06:54:41.778Z,61.86
2023-02-20T06:57:11.647Z,61.54
2023-02-20T06:59:50.386Z,61.09
2023-02-20T07:02:19.515Z,61.30
2023-02-20T07:04:50.556Z,61.06
2023-02-20T07:07:23.818Z,60.23
2023-02-20T07:10:45.920Z,60.32
2023-02-20T07:13:15.818Z,60.03
2023-02-20T07:15:46.099Z,59.59
2023-02-20T07:18:18.610Z,59.42
2023-02-20T07:20:48.814Z,59.08
2023-02-20T07:23:20.618Z,58.76
2023-02-20T07:25:52.301Z,59.17
2023-02-20T07:28:21.940Z,58.79
2023-02-20T07:30:52.265Z,58.05
2023-02-20T07:33:21.936Z,58.00
2023-02-20T07:35:52.114Z,56.75
2023-02-20T07:38:21.698Z,56.87
2023-02-20T07:40:51.695Z,55.79
2023-02-20T07:43:24.151Z,54.69
2023-02-20T07:45:57.472Z,54.27
2023-02-20T07:48:27.458Z,53.94
2023-02-20T07:50:57.376Z,53.82
2023-02-20T07:53:26.322Z,53.12
2023-02-20T07:55:56.915Z,52.88
2023-02-20T07:58:27.132Z,52.61
2023-02-20T08:00:57.519Z,52.78
2023-02-20T08:03:30.146Z,52.69
2023-02-20T08:06:01.218Z,52.50
2023-02-20T08:08:31.382Z,52.27
2023-02-20T08:11:08.607Z,52.84
2023-02-20T08:13:45.369Z,52.12
2023-02-20T08:16:15.729Z,51.51
2023-02-20T08:18:47.040Z,50.34
2023-02-20T08:21:23.855Z,51.05
2023-02-20T08:23:56.490Z,50.15
2023-02-20T08:26:27.430Z,49.87
2023-02-20T08:28:57.350Z,49.88
2023-02-20T08:31:32.889Z,49.75
2023-02-20T08:34:04.578Z,48.35
2023-02-20T08:36:34.056Z,47.72
2023-02-20T08:39:06.445Z,47.96
2023-02-20T08:41:45.016Z,48.12
2023-02-20T08:44:16.319Z,47.37
2023-02-20T08:46:55.395Z,47.21
2023-02-20T08:49:27.296Z,47.50
2023-02-20T08:51:58.890Z,46.97
2023-02-20T08:54:33.141Z,46.75
2023-02-20T08:57:05.348Z,47.01
2023-02-20T08:59:35.482Z,45.87
2023-02-20T09:02:09.524Z,45.57
2023-02-20T09:04:49.674Z,45.24
2023-02-20T09:07:19.380Z,44.69
2023-02-20T09:10:03.176Z,45.00
2023-02-20T09:12:47.305Z,44.51
2023-02-20T09:15:19.478Z,43.81
2023-02-20T09:17:58.229Z,44.04
2023-02-20T09:20:34.583Z,43.47
2023-02-20T09:23:09.829Z,43.39
2023-02-20T09:25:55.039Z,43.14
2023-02-20T09:28:24.620Z,43.63
2023-02-20T09:31:00.422Z,44.31
2023-02-20T09:33:34.920Z,44.04
2023-02-20T09:36:15.443Z,42.30
2023-02-20T09:38:48.284Z,42.65
2023-02-20T09:41:41.715Z,42.02
2023-02-20T09:44:44.413Z,41.45
2023-02-20T09:48:29.366Z,41.62
2023-02-20T09:51:34.205Z,41.46
2023-02-20T09:54:45.394Z,41.26
2023-02-20T09:57:41.474Z,41.46
2023-02-20T10:00:47.316Z,40.47
2023-02-20T10:03:53.652Z,40.10
2023-02-20T10:06:28.301Z,40.34
2023-02-20T10:08:59.230Z,40.04
2023-02-20T10:11:55.013Z,40.75
2023-02-20T10:14:51.565Z,39.40
2023-02-20T10:17:50.002Z,38.30
2023-02-20T10:20:43.095Z,38.07
2023-02-20T10:23:38.670Z,37.74
2023-02-20T10:26:29.425Z,37.81
2023-02-20T10:29:23.998Z,37.11
2023-02-20T10:32:31.521Z,36.95
2023-02-20T10:35:32.729Z,36.89
2023-02-20T10:38:13.577Z,37.33
2023-02-20T10:41:05.917Z,35.31
2023-02-20T10:43:58.278Z,34.41
2023-02-20T10:46:54.047Z,34.68
2023-02-20T10:49:38.297Z,33.00
2023-02-20T10:52:32.352Z,32.79
2023-02-20T10:55:26.434Z,33.38
2023-02-20T10:58:10.528Z,32.21
2023-02-20T11:00:54.384Z,32.85
2023-02-20T11:03:32.603Z,32.80
2023-02-20T11:06:07.843Z,32.23
2023-02-20T11:08:49.643Z,32.15
2023-02-20T11:11:31.784Z,32.10
2023-02-20T11:14:15.921Z,31.57
2023-02-20T11:17:04.835Z,30.51
2023-02-20T11:19:48.884Z,31.03
2023-02-20T11:22:42.152Z,31.59
2023-02-20T11:25:31.264Z,30.51
2023-02-20T11:28:21.557Z,30.08
2023-02-20T11:31:06.271Z,29.79
2023-02-20T11:33:48.457Z,30.30
2023-02-20T11:36:27.717Z,29.67
2023-02-20T11:39:00.298Z,28.85
2023-02-20T11:41:36.572Z,28.44
2023-02-20T11:44:09.014Z,27.88
2023-02-20T11:46:40.233Z,28.02
2023-02-20T11:49:28.709Z,27.67
2023-02-20T11:52:25.097Z,28.37
2023-02-20T11:55:21.620Z,27.94
2023-02-20T11:57:53.301Z,27.10
2023-02-20T12:00:28.214Z,26.52
2023-02-20T12:03:26.018Z,25.89
2023-02-20T12:05:58.172Z,26.50
2023-02-20T12:09:01.110Z,26.21
2023-02-20T12:11:38.118Z,27.59
2023-02-20T12:14:12.452Z,27.61
2023-02-20T12:16:57.414Z,26.77
2023-02-20T12:19:47.422Z,26.21
2023-02-20T12:22:39.944Z,25.96
2023-02-20T12:25:28.265Z,25.77
2023-02-20T12:28:28.839Z,24.38
2023-02-20T12:31:28.708Z,24.71
2023-02-20T12:34:25.837Z,24.47
2023-02-20T12:37:37.919Z,25.29
2023-02-20T12:40:41.511Z,26.07
2023-02-20T12:43:57.451Z,26.16
2023-02-20T12:47:12.979Z,27.22
2023-02-20T12:50:19.745Z,27.35
2023-02-20T12:53:08.758Z,28.98
2023-02-20T12:55:59.773Z,29.40
2023-02-20T12:58:47.254Z,29.88
2023-02-20T13:01:34.276Z,30.33
2023-02-20T13:05:00.543Z,30.82
2023-02-20T13:07:51.295Z,31.90
2023-02-20T13:10:36.551Z,31.24
2023-02-20T13:13:21.357Z,31.94
2023-02-20T13:16:29.943Z,31.92
2023-02-20T13:19:19.974Z,32.98
2023-02-20T13:22:01.792Z,32.75
2023-02-20T13:24:48.310Z,32.31
2023-02-20T13:27:37.054Z,32.27
2023-02-20T13:30:22.471Z,32.77
2023-02-20T13:33:30.248Z,32.81
2023-02-20T13:36:01.323Z,32.44
2023-02-20T13:38:34.377Z,32.42
2023-02-20T13:41:10.054Z,32.76
2023-02-20T13:43:40.753Z,32.46
2023-02-20T13:46:23.107Z,32.43
2023-02-20T13:49:17.528Z,33.04
2023-02-20T13:51:54.922Z,32.61
2023-02-20T13:54:33.909Z,32.87
2023-02-20T13:57:30.422Z,33.04
2023-02-20T14:00:25.369Z,33.89
2023-02-20T14:02:57.918Z,34.13
2023-02-20T14:05:32.971Z,33.88
2023-02-20T14:08:04.830Z,34.35
2023-02-20T14:10:40.621Z,34.79
2023-02-20T14:13:40.302Z,35.07
2023-02-20T14:16:34.725Z,35.15
2023-02-20T14:19:35.823Z,35.59
2023-02-20T14:22:33.922Z,35.77
2023-02-20T14:25:12.527Z,37.12
2023-02-20T14:27:52.753Z,38.76
2023-02-20T14:30:33.943Z,42.26
2023-02-20T14:33:34.699Z,42.76
2023-02-20T14:36:05.339Z,44.03
2023-02-20T14:39:03.720Z,44.28
2023-02-20T14:41:37.613Z,45.22
2023-02-20T14:44:19.932Z,45.54
2023-02-20T14:47:19.209Z,45.79
2023-02-20T14:49:49.185Z,46.17
2023-02-20T14:52:39.308Z,46.40
2023-02-20T14:55:18.674Z,46.50
2023-02-20T14:57:52.066Z,46.57
2023-02-20T15:00:34.194Z,47.06
2023-02-20T15:03:28.098Z,47.47
2023-02-20T15:06:16.466Z,47.77
2023-02-20T15:08:57.043Z,48.17
2023-02-20T15:11:31.921Z,48.39
2023-02-20T15:14:03.401Z,48.96
2023-02-20T15:17:23.307Z,49.40
2023-02-20T15:19:54.630Z,49.54
2023-02-20T15:22:37.634Z,49.44
2023-02-20T15:25:25.885Z,49.73
2023-02-20T15:28:26.806Z,50.30
2023-02-20T15:31:11.098Z,49.97
2023-02-20T15:33:52.030Z,50.38
2023-02-20T15:36:29.030Z,50.83
2023-02-20T15:39:01.991Z,50.90
2023-02-20T15:41:32.263Z,51.00
2023-02-20T15:44:04.086Z,51.25
2023-02-20T15:46:36.402Z,51.52
2023-02-20T15:49:07.216Z,52.19
2023-02-20T15:51:44.215Z,52.26
2023-02-20T15:54:20.337Z,52.86
2023-02-20T15:56:52.287Z,52.97
2023-02-20T15:59:22.846Z,53.17
2023-02-20T16:01:55.313Z,53.23
2023-02-20T16:04:28.071Z,53.55
2023-02-20T16:06:59.708Z,53.44
2023-02-20T16:09:31.952Z,53.63
2023-02-20T16:12:01.653Z,54.02
2023-02-20T16:14:33.415Z,54.01
2023-02-20T16:17:06.619Z,54.15
2023-02-20T16:19:43.059Z,54.23
2023-02-20T16:22:16.038Z,54.30
2023-02-20T16:24:47.654Z,54.63
2023-02-20T16:27:26.833Z,54.85
2023-02-20T16:29:59.068Z,54.70
2023-02-20T16:32:30.946Z,54.41
2023-02-20T16:35:02.397Z,54.79
2023-02-20T16:37:32.940Z,55.05
2023-02-20T16:40:09.870Z,55.46
2023-02-20T16:42:48.152Z,55.34
2023-02-20T16:45:24.933Z,55.36
2023-02-20T16:47:59.925Z,55.55
2023-02-20T16:50:40.900Z,55.63
2023-02-20T16:53:15.484Z,55.44
2023-02-20T16:55:47.542Z,55.69
2023-02-20T16:58:22.836Z,55.76
2023-02-20T17:00:58.075Z,55.84
2023-02-20T17:03:35.185Z,55.71
2023-02-20T17:06:08.076Z,55.65
2023-02-20T17:08:38.444Z,55.36
2023-02-20T17:11:08.471Z,55.92
2023-02-20T17:13:37.956Z,55.66
2023-02-20T17:19:58.490Z,55.92
2023-02-20T17:22:30.841Z,55.76
2023-02-20T17:25:00.220Z,56.20
2023-02-20T17:27:30.617Z,56.64
2023-02-20T17:30:02.581Z,56.52
2023-02-20T17:32:35.855Z,57.32
2023-02-20T17:35:09.615Z,57.33
2023-02-20T17:37:39.686Z,57.12
2023-02-20T17:40:11.015Z,56.95
2023-02-20T17:42:40.390Z,57.58
2023-02-20T17:45:11.301Z,57.57
2023-02-20T17:47:42.926Z,57.49
2023-02-20T17:50:13.872Z,57.52
2023-02-20T17:52:47.308Z,58.47
2023-02-20T17:55:20.800Z,58.83
2023-02-20T17:57:54.073Z,57.91
2023-02-20T18:00:32.750Z,58.82
2023-02-20T18:03:35.488Z,58.95
2023-02-20T18:06:29.302Z,58.93
2023-02-20T18:08:59.597Z,59.83
2023-02-20T18:11:33.273Z,59.38
2023-02-20T18:14:07.016Z,59.17
2023-02-20T18:16:41.490Z,59.95
2023-02-20T18:19:14.652Z,59.81
2023-02-20T18:21:53.609Z,59.30
2023-02-20T18:24:25.769Z,60.46
2023-02-20T18:26:56.555Z,60.97
2023-02-20T18:29:26.752Z,60.05
2023-02-20T18:34:58.893Z,61.35
2023-02-20T18:37:28.069Z,62.03
2023-02-20T18:39:57.752Z,61.37
2023-02-20T18:42:30.429Z,63.00
2023-02-20T18:45:00.300Z,62.90
2023-02-20T18:47:31.983Z,63.59
2023-02-20T18:50:02.462Z,63.71
2023-02-20T18:52:31.858Z,64.42
2023-02-20T18:55:02.621Z,64.07
2023-02-20T18:57:33.142Z,63.45
2023-02-20T19:00:06.484Z,63.76
2023-02-20T19:02:35.721Z,64.21
2023-02-20T19:05:06.723Z,64.74
2023-02-20T19:07:36.138Z,64.21
2023-02-20T19:10:09.215Z,65.06
2023-02-20T19:12:42.006Z,64.88
2023-02-20T19:15:12.529Z,64.38
2023-02-20T19:17:41.843Z,64.80
2023-02-20T19:20:23.999Z,65.82
2023-02-20T19:22:58.852Z,64.83
2023-02-20T19:25:29.809Z,65.56
2023-02-20T19:27:59.635Z,64.98
2023-02-20T19:30:29.458Z,65.55
2023-02-20T19:32:59.150Z,65.92
2023-02-20T19:35:32.038Z,67.21
2023-02-20T19:38:08.032Z,66.36
2023-02-20T19:40:38.288Z,67.57
2023-02-20T19:43:08.333Z,68.37
2023-02-20T19:45:38.430Z,66.56
2023-02-20T19:48:08.495Z,66.76
2023-02-20T19:50:38.796Z,67.33
2023-02-20T19:53:09.815Z,69.39
2023-02-20T19:55:38.996Z,67.71
2023-02-20T19:58:08.874Z,69.74
2023-02-20T20:00:38.687Z,70.20
2023-02-20T20:03:07.991Z,69.35
2023-02-20T20:05:39.705Z,69.24
2023-02-20T20:08:10.451Z,69.59
2023-02-20T20:10:40.633Z,69.62
2023-02-20T20:13:10.800Z,71.67
2023-02-20T20:15:40.805Z,70.48
2023-02-20T20:18:12.594Z,70.19
2023-02-20T20:20:43.650Z,71.14
2023-02-20T20:23:14.446Z,71.81
2023-02-20T20:25:46.240Z,71.46
2023-02-20T20:28:17.568Z,70.40
2023-02-20T20:30:47.719Z,70.21
2023-02-20T20:33:18.837Z,70.05
2023-02-20T20:35:48.472Z,70.13
2023-02-20T20:38:17.909Z,70.91
2023-02-20T20:40:50.620Z,71.81
2023-02-20T20:43:21.163Z,71.70
2023-02-20T20:45:53.926Z,71.24
2023-02-20T20:48:26.720Z,70.68
2023-02-20T20:50:56.428Z,70.38
2023-02-20T20:53:29.831Z,71.13
2023-02-20T20:56:00.499Z,71.81
2023-02-20T20:58:30.739Z,70.99
2023-02-20T21:01:06.939Z,71.23
2023-02-20T21:03:47.474Z,71.11
2023-02-20T21:06:17.231Z,71.51
2023-02-20T21:08:48.020Z,72.00
2023-02-20T21:11:18.050Z,71.29
2023-02-20T21:13:49.259Z,72.60
2023-02-20T21:16:19.287Z,72.97
2023-02-20T21:18:49.118Z,72.88
2023-02-20T21:21:18.983Z,73.53
2023-02-20T21:23:49.397Z,73.37
2023-02-20T21:26:19.904Z,73.20
2023-02-20T21:28:49.810Z,72.67
2023-02-20T21:31:23.545Z,72.30
2023-02-20T21:33:56.727Z,72.35
2023-02-20T21:36:28.589Z,72.13
2023-02-20T21:38:58.560Z,73.02
2023-02-20T21:41:49.190Z,74.18
2023-02-20T21:44:28.088Z,73.91
2023-02-20T21:47:05.418Z,75.59
2023-02-20T21:49:40.522Z,75.21
2023-02-20T21:52:10.354Z,73.41
2023-02-20T21:54:42.290Z,74.45
2023-02-20T21:57:15.359Z,74.18
2023-02-20T21:59:44.889Z,74.61
2023-02-20T22:02:19.403Z,75.61
2023-02-20T22:04:49.010Z,77.17
2023-02-20T22:07:38.479Z,77.33
2023-02-20T22:10:27.729Z,77.91
2023-02-20T22:13:17.112Z,76.99
2023-02-20T22:16:06.605Z,76.51
2023-02-20T22:19:03.692Z,76.16
2023-02-20T22:21:55.292Z,76.56
2023-02-20T22:24:47.116Z,77.52
2023-02-20T22:27:35.487Z,78.07
2023-02-20T22:30:26.035Z,77.61
2023-02-20T22:33:14.805Z,76.99
2023-02-20T22:36:03.726Z,76.83
2023-02-20T22:38:52.764Z,77.13
2023-02-20T22:41:41.985Z,77.32
2023-02-20T22:44:30.972Z,77.30
2023-02-20T22:47:19.436Z,77.32
2023-02-20T22:50:10.019Z,76.89
2023-02-20T22:52:59.965Z,75.75
2023-02-20T22:55:48.886Z,76.34
2023-02-20T22:58:37.715Z,75.96
2023-02-20T23:01:26.229Z,75.23
2023-02-20T23:04:15.346Z,75.39
2023-02-20T23:07:04.440Z,76.18
2023-02-20T23:09:54.109Z,76.16
2023-02-20T23:12:43.214Z,75.29
2023-02-20T23:15:32.094Z,76.02
2023-02-20T23:18:21.497Z,76.05
2023-02-20T23:21:11.654Z,75.74
2023-02-20T23:24:00.649Z,76.19
2023-02-20T23:26:49.749Z,76.94
2023-02-20T23:29:38.700Z,77.25
2023-02-20T23:32:30.797Z,77.17
2023-02-20T23:35:19.255Z,76.75
2023-02-20T23:38:10.995Z,76.74
2023-02-20T23:40:59.829Z,76.81
2023-02-20T23:43:50.222Z,77.13
2023-02-20T23:46:38.542Z,76.08
2023-02-20T23:49:26.928Z,75.65
2023-02-20T23:52:18.005Z,75.81
2023-02-20T23:55:08.505Z,76.17
2023-02-20T23:57:57.732Z,77.45
